| Date | Time | Temp. (oF) | Dew Point (oF) | Rel. Hum. (%) | Press. (in.) | Wind Dir. (deg.) | Wind Speed (mph) | Hourly Rainfall (i n.) |
|
|---|---|---|---|---|---|---|---|---|---|
| 1 | 12/27 | 24:00 | 31 | 15 | 52 | 29.90 | 310 | 16 | 0.00 |
| 2 | 12/26 | 23:00 | 31 | 14 | 49 | 29.89 | 230 | 12 | 0.00 |
| 3 | 12/26 | 22:00 | 32 | 15 | 50 | 29.89 | 330 | 10 | 0.00 |
| 4 | 12/26 | 21:00 | 33 | 17 | 52 | 29.88 | 310 | 7 | 0.00 |
| 5 | 12/26 | 20:00 | 34 | 18 | 53 | 29.87 | 330 | 11 | 0.00 |
| 6 | 12/26 | 19:00 | 36 | 20 | 54 | 29.84 | 310 | 7 | 0.00 |
| 7 | 12/26 | 18:00 | 36 | 20 | 52 | 29.83 | 270 | 9 | 0.00 |
| 8 | 12/26 | 17:00 | 36 | 20 | 52 | 29.82 | 330 | 6 | 0.00 |
| 9 | 12/26 | 16:00 | 37 | 20 | 50 | 29.81 | 270 | 6 | 0.00 |
| 10 | 12/26 | 15:00 | 39 | 17 | 42 | 29.80 | 290 | 9 | 0.00 |
| 11 | 12/26 | 14:00 | 37 | 15 | 42 | 29.79 | 310 | 1 | 0.00 |
| 12 | 12/26 | 13:00 | 35 | 14 | 43 | 29.78 | 270 | 4 | 0.00 |
| 13 | 12/26 | 12:00 | 31 | 13 | 47 | 29.82 | 270 | 1 | 0.00 |
| 14 | 12/26 | 11:00 | 32 | 13 | 46 | 29.83 | 130 | 4 | 0.00 |
| 15 | 12/26 | 10:00 | 30 | 14 | 51 | 29.85 | 120 | 4 | 0.00 |
| 16 | 12/26 | 09:00 | 27 | 12 | 55 | 29.85 | 10 | 2 | 0.00 |
| 17 | 12/26 | 08:00 | 25 | 12 | 58 | 29.89 | 200 | 4 | 0.00 |
| 18 | 12/26 | 07:00 | 24 | 10 | 56 | 29.94 | 100 | 1 | 0.00 |
| 19 | 12/26 | 06:00 | 24 | 9 | 54 | 29.97 | 300 | 6 | 0.00 |
| 20 | 12/26 | 05:00 | 23 | 9 | 56 | 30.01 | 310 | 4 | 0.00 |
| 21 | 12/26 | 04:00 | 23 | 10 | 57 | 30.06 | 240 | 2 | 0.00 |
| 22 | 12/26 | 03:00 | 23 | 9 | 56 | 30.11 | 220 | 2 | 0.00 |
| 23 | 12/26 | 02:00 | 23 | 10 | 57 | 30.15 | 140 | 4 | 0.00 |
| 24 | 12/26 | 01:00 | 22 | 10 | 60 | 30.19 | 190 | 1 | 0.00 |